Airfield :
LOGIN :

Register | Disclaimer

   EN    FR    IT 

 










Legend :    VFR   Marginal VFR   IFR   Intensive IFR   Very Intensive IFR
Visi :
Ceiling :
>= 8 km
>= 3000ft
5 to 8 km
1000 to 3000 ft
1500m to 5 km
500 to 1000 ft
800 to 1500m
200 to 500 ft
< 800m
< 200 ft
Symbols :   Thunderstorms  Fog  Heavy snow  Heavy precipitations  Wind > 20 kt
SIGMETs :     Misc.  Thunderstorms  Icing  Turbulence  Mountain Waves  Volcanic Ashes







- Airport Elevation : 466 ft


LHPA - Pápa

CURRENT METAR :
  • 241715Z 33008KT 8000 SCT033 BKN200 10/05 Q1025 NOSIG RMK BLU

EXPIRED METARs :
  • 241645Z 32008KT 8000 SCT033 BKN200 11/05 Q1025 NOSIG RMK BLU
  • 241615Z 33012KT 310V010 8000 SCT033 BKN200 12/05 Q1025 NOSIG RMK BLU
  • 241545Z 33010KT 8000 SCT033 BKN200 12/05 Q1025 NOSIG RMK BLU
  • 241515Z 32016KT 8000 SCT033 BKN200 13/05 Q1025 NOSIG RMK BLU
  • 241445Z 32014KT 8000 BKN027 13/05 Q1025 NOSIG RMK BLU

TAF TAF LHPA
Valid from the 24 at 18:00 until the 25 at 18:00 UTC


241715Z 2418/2518 33008KT 8000 SCT030 BKN200
BECMG 2418/2420 6000 NSC
BECMG 2500/2502 VRB03KT 3000 BR SCT030
PROB40
TEMPO 2502/2507 1500 BR MIBCFG BKN020
BECMG 2507/2510 CAVOK
No reported NOTAMs for that airfield.



MET'MAP, your aeronautical weather chart ! - Copyright ORBIFLY December 2007 - Disclaimer

ORBIFLY MET'MAP TEAM :

Programming & Development : Alexandra Zaïnal
Concept & Development : Baudouin d'Aumeries
Co-Development & Prog : Marc-Olivier Méhu
Technical & hardware support : Manuel Goepfert

Contact : metmap@orbifly.com




SOURCES & CREDITS :

   NOAA